Weather at St Leonards Airfield

Public forecast

Using degrees Celsius for public forecast. Weather courtesy of forecast.io.

Closest aviation weather report (METAR) to St Leonards Airfield

Closest report is Avalon Airport, 13.0 nm (24.1 km) NW.

2024/06/17 05:00 (retrieved 16 minutes ago)

YMAV 170500Z AUTO 20012KT 9999 // BKN045 13/07 Q1021 RF000/0000

Closest aviation forecast (TAF) to St Leonards Airfield

Forecast is more than 6 hours old.

Closest forecast is Koumac Airport, 1,466.1 nm (2,715.2 km) NE.

2024/06/16 18:00 Ammendment (retrieved 11 hours ago)

TAF AMD NWWE 161700Z 1618/1718 CNL TAF AMD NWWK 161700Z 1618/1718 CNL